Time;durP1;ratioP1;P1;durP2;ratioP2;P2;SDS_P1;SDS_P2;PMS_P1;PMS_P2;Temp;Humidity;BMP_temperature;BMP_pressure;BME280_temperature;BME280_humidity;BME280_pressure;Samples;Min_cycle;Max_cycle;Signal;HPM_P1;HPM_P2
2022/04/26 03:36:06;;;;;;;8.38;3.38;;;;;;;;;;5017156;28;20129;-72
2022/04/26 03:38:34;;;;;;;6.97;3.47;;;;;;;;;;5017383;28;20046;-74
2022/04/26 03:41:06;;;;;;;5.30;3.05;;;;;;;;;;5016981;28;20524;-74
2022/04/26 03:43:39;;;;;;;7.97;3.80;;;;;;;;;;4999652;28;20046;-75
2022/04/26 03:46:07;;;;;;;7.80;4.22;;;;;;;;;;5015245;28;20080;-75
2022/04/26 03:52:28;;;;;;;4.47;2.97;;;;;;;;;;5016924;28;20126;-75
2022/04/26 03:55:17;;;;;;;5.97;3.42;;;;;;;;;;5016982;28;20377;-75
2022/04/26 03:57:45;;;;;;;5.25;3.08;;;;;;;;;;5016713;28;20046;-74
2022/04/26 04:00:32;;;;;;;6.07;3.35;;;;;;;;;;5016188;28;20038;-74
2022/04/26 04:03:00;;;;;;;6.03;3.08;;;;;;;;;;5017030;28;20054;-74
2022/04/26 04:05:35;;;;;;;6.80;3.53;;;;;;;;;;5016190;28;20404;-74
2022/04/26 04:08:35;;;;;;;5.18;3.45;;;;;;;;;;5016538;28;20042;-74
2022/04/26 04:11:07;;;;;;;7.28;3.03;;;;;;;;;;4998192;28;20053;-74
2022/04/26 04:13:53;;;;;;;5.55;3.30;;;;;;;;;;4998554;28;20038;-74
2022/04/26 04:16:20;;;;;;;5.18;3.17;;;;;;;;;;4999031;28;20073;-73
2022/04/26 04:21:40;;;;;;;6.82;3.25;;;;;;;;;;4998841;28;20050;-74
2022/04/26 04:24:09;;;;;;;4.75;3.60;;;;;;;;;;4998610;28;20042;-74
2022/04/26 04:26:37;;;;;;;3.53;2.92;;;;;;;;;;4998435;28;20073;-74
2022/04/26 04:29:05;;;;;;;7.65;3.65;;;;;;;;;;5014843;28;20409;-73
2022/04/26 04:31:33;;;;;;;7.28;3.70;;;;;;;;;;5014198;28;20061;-74
2022/04/26 04:34:01;;;;;;;6.07;3.65;;;;;;;;;;5016248;28;20121;-74
2022/04/26 04:36:36;;;;;;;7.18;4.32;;;;;;;;;;5016550;28;20052;-74
2022/04/26 04:39:06;;;;;;;6.72;3.72;;;;;;;;;;5016041;28;20485;-74
2022/04/26 04:41:37;;;;;;;10.48;4.78;;;;;;;;;;5016462;28;20448;-74
2022/04/26 04:44:08;;;;;;;13.25;4.35;;;;;;;;;;4998513;28;20474;-74
2022/04/26 04:46:35;;;;;;;9.50;4.45;;;;;;;;;;5014760;28;20065;-73
2022/04/26 04:49:06;;;;;;;5.47;4.18;;;;;;;;;;4998417;28;20492;-74
2022/04/26 04:51:38;;;;;;;7.78;5.45;;;;;;;;;;5016240;28;20113;-74
2022/04/26 04:54:10;;;;;;;16.15;4.63;;;;;;;;;;4997991;28;20073;-74
2022/04/26 04:56:38;;;;;;;7.30;4.68;;;;;;;;;;5015825;28;20042;-74
2022/04/26 05:02:45;;;;;;;9.15;4.63;;;;;;;;;;5015573;28;20038;-74
2022/04/26 05:05:22;;;;;;;10.15;4.88;;;;;;;;;;4997257;28;20088;-72
2022/04/26 05:07:50;;;;;;;8.25;4.88;;;;;;;;;;4997761;28;20052;-74
2022/04/26 05:14:16;;;;;;;10.27;4.78;;;;;;;;;;5025247;28;20225;-77
2022/04/26 05:16:49;;;;;;;9.00;4.65;;;;;;;;;;5009783;28;20068;-75
2022/04/26 05:19:22;;;;;;;8.68;4.68;;;;;;;;;;5021310;28;20050;-75
2022/04/26 05:25:25;;;;;;;7.13;4.05;;;;;;;;;;5021374;28;20385;-75
2022/04/26 05:31:36;;;;;;;;;;;;;;;;;;4943953;29;20051;-79
2022/04/26 05:44:42;;;;;;;10.07;5.38;;;;;;;;;;5107060;27;20359;-79
2022/04/26 05:47:12;;;;;;;8.63;5.20;;;;;;;;;;5085935;28;20046;-76
2022/04/26 05:49:44;;;;;;;7.18;4.88;;;;;;;;;;5090939;28;20055;-75
2022/04/26 05:52:13;;;;;;;9.70;4.97;;;;;;;;;;5090711;28;20123;-76
2022/04/26 05:55:07;;;;;;;8.25;4.68;;;;;;;;;;5090852;28;20494;-74
2022/04/26 05:57:42;;;;;;;10.48;5.13;;;;;;;;;;5090754;28;20068;-74
2022/04/26 06:00:25;;;;;;;31.98;24.92;;;;;;;;;;5087888;28;20040;-74
2022/04/26 06:02:52;;;;;;;19.30;11.13;;;;;;;;;;5089267;28;20490;-74
2022/04/26 06:05:21;;;;;;;10.48;5.18;;;;;;;;;;5072651;28;20048;-74
2022/04/26 06:07:50;;;;;;;9.82;4.28;;;;;;;;;;5089040;28;20402;-74
2022/04/26 06:10:22;;;;;;;6.50;3.85;;;;;;;;;;5090519;28;20474;-74
2022/04/26 06:12:52;;;;;;;7.85;4.32;;;;;;;;;;5090626;28;20081;-74
2022/04/26 06:15:21;;;;;;;7.22;3.92;;;;;;;;;;5090108;28;20051;-74
2022/04/26 06:17:55;;;;;;;5.45;3.60;;;;;;;;;;5090323;28;20055;-74
2022/04/26 06:20:25;;;;;;;;;;;;;;;;;;5090943;28;20040;-74
2022/04/26 06:22:53;;;;;;;5.93;3.42;;;;;;;;;;5088820;28;19963;-74
2022/04/26 06:25:24;;;;;;;8.27;3.95;;;;;;;;;;5090039;28;20044;-74
2022/04/26 06:27:57;;;;;;;7.95;3.80;;;;;;;;;;5090147;28;20041;-74
2022/04/26 06:30:25;;;;;;;5.88;3.30;;;;;;;;;;5088671;28;20573;-74
2022/04/26 06:32:54;;;;;;;7.18;3.38;;;;;;;;;;5089863;28;20043;-74
2022/04/26 06:35:29;;;;;;;5.55;3.22;;;;;;;;;;5090218;28;20074;-74
2022/04/26 06:37:58;;;;;;;7.38;3.92;;;;;;;;;;5088575;28;20049;-74
2022/04/26 06:40:28;;;;;;;7.18;3.75;;;;;;;;;;5090006;28;20071;-74
2022/04/26 06:42:55;;;;;;;6.70;3.95;;;;;;;;;;5088964;28;20056;-74
2022/04/26 06:45:23;;;;;;;7.35;3.92;;;;;;;;;;5088363;28;20044;-75
2022/04/26 06:47:54;;;;;;;7.93;4.32;;;;;;;;;;5089574;28;20494;-75
2022/04/26 06:50:26;;;;;;;9.73;4.00;;;;;;;;;;5089722;28;20045;-75
2022/04/26 06:52:54;;;;;;;7.22;3.90;;;;;;;;;;5089629;28;20115;-75
2022/04/26 06:55:24;;;;;;;8.98;3.90;;;;;;;;;;5077547;28;20047;-75
2022/04/26 06:57:57;;;;;;;7.72;4.28;;;;;;;;;;5074615;28;20041;-75
2022/04/26 07:00:25;;;;;;;5.80;3.93;;;;;;;;;;5075945;28;20115;-75
2022/04/26 07:02:55;;;;;;;8.25;4.10;;;;;;;;;;5075631;28;20044;-75
2022/04/26 07:05:28;;;;;;;6.03;4.20;;;;;;;;;;5074591;28;20435;-74
2022/04/26 07:07:56;;;;;;;8.00;4.50;;;;;;;;;;5074713;28;20036;-74
2022/04/26 07:10:28;;;;;;;6.45;4.15;;;;;;;;;;5075740;28;20146;-75
2022/04/26 07:13:01;;;;;;;7.88;3.97;;;;;;;;;;5076224;28;20044;-75
2022/04/26 07:15:30;;;;;;;9.43;4.00;;;;;;;;;;5075724;28;20187;-76
2022/04/26 07:18:01;;;;;;;9.63;5.10;;;;;;;;;;5075352;28;20052;-75
2022/04/26 07:20:55;;;;;;;7.95;3.90;;;;;;;;;;5074111;28;20387;-75
2022/04/26 07:23:22;;;;;;;7.32;4.00;;;;;;;;;;5075479;28;20443;-75
2022/04/26 07:25:55;;;;;;;7.32;4.30;;;;;;;;;;5075348;28;20037;-75
2022/04/26 07:31:34;;;;;;;7.57;3.92;;;;;;;;;;5074990;28;20437;-76
2022/04/26 07:34:20;;;;;;;8.10;4.10;;;;;;;;;;5075639;28;20560;-75
2022/04/26 07:37:03;;;;;;;9.68;4.22;;;;;;;;;;5074022;28;20045;-75
2022/04/26 07:39:33;;;;;;;14.00;4.63;;;;;;;;;;5073945;28;20068;-76
2022/04/26 07:42:02;;;;;;;8.88;4.85;;;;;;;;;;5074451;28;20044;-75
2022/04/26 07:44:35;;;;;;;8.15;4.70;;;;;;;;;;5073863;28;20379;-75
2022/04/26 07:47:05;;;;;;;8.68;4.53;;;;;;;;;;5074923;28;20123;-75
2022/04/26 07:49:36;;;;;;;10.60;4.75;;;;;;;;;;5073312;28;20040;-75
2022/04/26 07:52:09;;;;;;;6.25;4.40;;;;;;;;;;5074829;28;20041;-75
2022/04/26 07:54:40;;;;;;;10.05;4.53;;;;;;;;;;5074847;28;20050;-75
2022/04/26 07:57:09;;;;;;;11.10;4.38;;;;;;;;;;5074643;28;20398;-76
2022/04/26 07:59:42;;;;;;;8.65;4.43;;;;;;;;;;5074338;28;20040;-76
2022/04/26 08:02:10;;;;;;;7.17;4.50;;;;;;;;;;5074737;28;20036;-75
2022/04/26 08:04:47;;;;;;;7.20;4.13;;;;;;;;;;5074916;28;20041;-75
2022/04/26 08:07:19;;;;;;;7.07;3.80;;;;;;;;;;5072462;28;20490;-75
2022/04/26 08:09:48;;;;;;;9.30;4.03;;;;;;;;;;5074799;28;20115;-76
2022/04/26 08:12:17;;;;;;;23.80;11.32;;;;;;;;;;5073125;28;20106;-75
2022/04/26 08:14:50;;;;;;;6.55;3.15;;;;;;;;;;5073342;28;20521;-75
2022/04/26 08:17:18;;;;;;;4.82;3.03;;;;;;;;;;5073245;28;20127;-76
2022/04/26 08:19:48;;;;;;;5.60;2.60;;;;;;;;;;5074252;28;20040;-76
2022/04/26 08:22:20;;;;;;;5.60;2.78;;;;;;;;;;5074397;28;20054;-75
2022/04/26 08:27:40;;;;;;;5.18;3.00;;;;;;;;;;5074139;28;20067;-75
2022/04/26 08:30:10;;;;;;;6.05;3.20;;;;;;;;;;5074092;28;20075;-75
2022/04/26 08:33:10;;;;;;;6.30;2.78;;;;;;;;;;5074025;28;20045;-75
2022/04/26 08:35:37;;;;;;;7.40;2.80;;;;;;;;;;5074436;28;20051;-75
2022/04/26 08:38:28;;;;;;;5.93;3.10;;;;;;;;;;5074075;28;20048;-74
2022/04/26 08:40:58;;;;;;;4.38;3.00;;;;;;;;;;5073983;28;20068;-74
2022/04/26 08:43:51;;;;;;;5.10;3.08;;;;;;;;;;5073652;28;20047;-74
2022/04/26 08:46:20;;;;;;;5.50;2.58;;;;;;;;;;5072729;28;20445;-74
2022/04/26 08:51:45;;;;;;;2.80;1.75;;;;;;;;;;5073686;28;20111;-74
2022/04/26 08:54:17;;;;;;;3.20;2.00;;;;;;;;;;5073601;28;20043;-74
2022/04/26 08:56:51;;;;;;;7.30;2.50;;;;;;;;;;5073832;28;20041;-74
2022/04/26 08:59:21;;;;;;;4.60;2.38;;;;;;;;;;5073992;28;20041;-74
2022/04/26 09:01:50;;;;;;;4.85;2.60;;;;;;;;;;5072038;28;20487;-74
2022/04/26 09:04:22;;;;;;;3.75;2.13;;;;;;;;;;5073728;28;20045;-74
2022/04/26 09:06:52;;;;;;;4.00;2.08;;;;;;;;;;5072401;28;20051;-74
2022/04/26 09:09:22;;;;;;;3.63;2.15;;;;;;;;;;5073789;28;20040;-74
2022/04/26 09:11:54;;;;;;;3.80;2.13;;;;;;;;;;5073530;28;20067;-73
2022/04/26 09:14:37;;;;;;;6.05;3.47;;;;;;;;;;5073781;28;20040;-74
2022/04/26 09:17:18;;;;;;;5.45;1.70;;;;;;;;;;5073545;28;20058;-73
2022/04/26 09:19:53;;;;;;;4.88;2.88;;;;;;;;;;5071812;28;20072;-74
2022/04/26 09:22:30;;;;;;;4.70;2.38;;;;;;;;;;5074856;28;20068;-74
2022/04/26 09:25:05;;;;;;;4.57;2.50;;;;;;;;;;5073563;28;20040;-73
2022/04/26 09:27:41;;;;;;;2.20;1.55;;;;;;;;;;5071974;28;20422;-73
2022/04/26 09:30:11;;;;;;;16.45;12.68;;;;;;;;;;5071808;28;20056;-73
2022/04/26 09:32:50;;;;;;;2.65;1.45;;;;;;;;;;5072046;28;20048;-74
2022/04/26 09:35:23;;;;;;;3.85;3.05;;;;;;;;;;5073479;28;20478;-73
2022/04/26 09:37:53;;;;;;;4.30;1.85;;;;;;;;;;5073066;28;20044;-73
2022/04/26 09:40:29;;;;;;;4.65;2.80;;;;;;;;;;5071823;28;20457;-73
2022/04/26 09:42:56;;;;;;;4.43;2.95;;;;;;;;;;5071730;28;20072;-74
2022/04/26 09:45:25;;;;;;;7.75;1.80;;;;;;;;;;5073026;28;20047;-74
2022/04/26 09:47:59;;;;;;;2.90;1.35;;;;;;;;;;5071552;28;20056;-73
2022/04/26 09:50:52;;;;;;;5.10;3.42;;;;;;;;;;5073448;28;20041;-73
2022/04/26 09:53:19;;;;;;;3.03;1.45;;;;;;;;;;5073393;28;20072;-73
2022/04/26 09:55:50;;;;;;;4.97;2.10;;;;;;;;;;5071784;28;20402;-74
2022/04/26 09:58:26;;;;;;;2.67;1.83;;;;;;;;;;5072302;28;20076;-73
2022/04/26 10:00:58;;;;;;;2.63;1.95;;;;;;;;;;5071777;28;20072;-73
2022/04/26 10:03:36;;;;;;;2.83;1.83;;;;;;;;;;5071658;28;20048;-73
2022/04/26 10:06:08;;;;;;;4.93;2.13;;;;;;;;;;5073867;28;20383;-76
2022/04/26 10:08:40;;;;;;;4.40;1.80;;;;;;;;;;5073267;28;20037;-75
2022/04/26 10:11:10;;;;;;;7.82;2.00;;;;;;;;;;5072944;28;20550;-73
2022/04/26 10:13:42;;;;;;;1.58;1.30;;;;;;;;;;5072803;28;20040;-73
2022/04/26 10:16:19;;;;;;;2.90;1.70;;;;;;;;;;5071430;28;20051;-73
2022/04/26 10:19:16;;;;;;;3.55;2.80;;;;;;;;;;5071567;28;20045;-73
2022/04/26 10:21:49;;;;;;;3.35;2.30;;;;;;;;;;5071846;28;20110;-73
2022/04/26 10:24:20;;;;;;;3.78;2.00;;;;;;;;;;5071820;28;20473;-73
2022/04/26 10:27:13;;;;;;;3.30;1.77;;;;;;;;;;5071541;28;20090;-73
2022/04/26 10:29:45;;;;;;;9.23;1.63;;;;;;;;;;5074236;28;20045;-73
2022/04/26 10:32:29;;;;;;;6.07;2.08;;;;;;;;;;5075110;28;20071;-73
2022/04/26 10:35:17;;;;;;;4.35;1.25;;;;;;;;;;5075111;28;20045;-73
2022/04/26 10:38:07;;;;;;;2.22;1.00;;;;;;;;;;5075263;28;20040;-73
2022/04/26 10:40:56;;;;;;;6.20;2.28;;;;;;;;;;5076448;28;20036;-73
2022/04/26 10:43:23;;;;;;;3.63;1.83;;;;;;;;;;5076013;28;20068;-73
2022/04/26 10:46:17;;;;;;;4.53;2.28;;;;;;;;;;5075978;28;20047;-73
2022/04/26 10:48:46;;;;;;;4.53;2.22;;;;;;;;;;5075030;28;20045;-73
2022/04/26 10:51:34;;;;;;;4.20;2.50;;;;;;;;;;5074848;28;20098;-75
2022/04/26 10:54:27;;;;;;;3.85;1.23;;;;;;;;;;5075697;28;20055;-75
2022/04/26 10:57:00;;;;;;;3.13;2.05;;;;;;;;;;5076426;28;20470;-75
2022/04/26 10:59:28;;;;;;;1.83;1.40;;;;;;;;;;5074800;28;20395;-75
2022/04/26 11:02:25;;;;;;;1.60;1.00;;;;;;;;;;5074658;28;20032;-75
2022/04/26 11:08:12;;;;;;;3.17;1.10;;;;;;;;;;5076054;28;20071;-75
2022/04/26 11:11:10;;;;;;;4.28;1.42;;;;;;;;;;5076049;28;20045;-75
2022/04/26 11:13:40;;;;;;;1.25;0.98;;;;;;;;;;5075320;28;20067;-77
2022/04/26 11:16:15;;;;;;;2.63;1.08;;;;;;;;;;5074364;28;20053;-75
2022/04/26 11:18:45;;;;;;;3.05;1.30;;;;;;;;;;5074703;28;20071;-74
2022/04/26 11:21:30;;;;;;;3.83;1.40;;;;;;;;;;5075905;28;20036;-74
2022/04/26 11:29:55;;;;;;;2.85;1.95;;;;;;;;;;5075971;28;20048;-74
2022/04/26 11:32:44;;;;;;;7.75;6.43;;;;;;;;;;5075507;28;20040;-75
2022/04/26 11:35:17;;;;;;;2.13;1.50;;;;;;;;;;5074110;28;20075;-73
2022/04/26 11:37:53;;;;;;;3.10;1.63;;;;;;;;;;5075228;28;20090;-74
2022/04/26 11:40:26;;;;;;;2.97;1.52;;;;;;;;;;5075328;28;20040;-75
2022/04/26 11:42:56;;;;;;;2.08;0.90;;;;;;;;;;5073971;28;20572;-75
2022/04/26 11:45:28;;;;;;;3.53;1.40;;;;;;;;;;5075122;28;20487;-74
2022/04/26 11:47:59;;;;;;;3.00;1.90;;;;;;;;;;5074065;28;20063;-74
2022/04/26 11:50:34;;;;;;;1.45;1.25;;;;;;;;;;5075150;28;20124;-76
2022/04/26 11:53:07;;;;;;;2.60;1.80;;;;;;;;;;5073722;28;20040;-77
2022/04/26 11:55:37;;;;;;;2.22;1.10;;;;;;;;;;5074897;28;20059;-74
2022/04/26 11:58:13;;;;;;;4.13;1.70;;;;;;;;;;5074836;28;20032;-74
2022/04/26 12:00:59;;;;;;;3.17;1.75;;;;;;;;;;5074803;28;20036;-75
2022/04/26 12:03:33;;;;;;;4.55;1.45;;;;;;;;;;5073220;28;20079;-74
2022/04/26 12:06:07;;;;;;;3.15;1.30;;;;;;;;;;5073395;28;20052;-75
2022/04/26 12:08:46;;;;;;;4.07;2.10;;;;;;;;;;5073430;28;20094;-75
2022/04/26 12:11:41;;;;;;;2.38;1.42;;;;;;;;;;5074792;28;20033;-75
2022/04/26 12:14:41;;;;;;;3.75;1.45;;;;;;;;;;5074334;28;20494;-75
2022/04/26 12:17:29;;;;;;;2.92;1.48;;;;;;;;;;5073018;28;20044;-73
2022/04/26 12:20:10;;;;;;;2.38;1.23;;;;;;;;;;5074269;28;20119;-75
2022/04/26 12:22:41;;;;;;;3.05;1.48;;;;;;;;;;5074398;28;20566;-75
2022/04/26 12:25:23;;;;;;;6.25;1.40;;;;;;;;;;5074368;28;20475;-75
2022/04/26 12:28:22;;;;;;;2.72;1.50;;;;;;;;;;5074327;28;20554;-75
2022/04/26 12:30:50;;;;;;;1.45;1.20;;;;;;;;;;5069857;28;20137;-75
2022/04/26 12:33:43;;;;;;;1.55;0.93;;;;;;;;;;5072699;28;20044;-75
2022/04/26 12:36:15;;;;;;;3.22;1.58;;;;;;;;;;5074213;28;20056;-74
2022/04/26 12:38:46;;;;;;;3.92;1.95;;;;;;;;;;5074387;28;20044;-75
2022/04/26 12:41:21;;;;;;;2.30;1.10;;;;;;;;;;5072865;28;20048;-75
2022/04/26 12:44:13;;;;;;;2.83;1.73;;;;;;;;;;5072584;28;20084;-74
2022/04/26 12:50:28;;;;;;;3.35;1.50;;;;;;;;;;5073869;28;20048;-74
2022/04/26 12:52:53;;;;;;;1.27;1.17;;;;;;;;;;5071967;28;20140;-74
2022/04/26 12:55:28;;;;;;;5.40;1.55;;;;;;;;;;5073877;28;20048;-75
2022/04/26 13:01:24;;;;;;;6.32;1.88;;;;;;;;;;5073986;28;20071;-75
2022/04/26 13:03:58;;;;;;;2.58;1.55;;;;;;;;;;5073059;28;20093;-75
2022/04/26 13:06:54;;;;;;;1.90;1.50;;;;;;;;;;5074108;28;20079;-75
2022/04/26 13:09:42;;;;;;;1.75;0.90;;;;;;;;;;5076073;28;20097;-75
2022/04/26 13:12:16;;;;;;;4.47;1.55;;;;;;;;;;5074945;28;20120;-75
2022/04/26 13:14:44;;;;;;;5.07;2.22;;;;;;;;;;5056087;28;20513;-75
2022/04/26 13:17:21;;;;;;;3.42;1.60;;;;;;;;;;5072268;28;20095;-75
2022/04/26 13:20:07;;;;;;;2.50;2.15;;;;;;;;;;5073107;28;20487;-75
2022/04/26 13:22:45;;;;;;;1.52;1.25;;;;;;;;;;5072142;28;20067;-75
2022/04/26 13:25:32;;;;;;;2.50;1.30;;;;;;;;;;5073176;28;20044;-74
2022/04/26 13:28:18;;;;;;;7.05;3.78;;;;;;;;;;5072256;28;20095;-74
2022/04/26 13:30:47;;;;;;;3.40;1.85;;;;;;;;;;5072479;28;20040;-75
2022/04/26 13:33:16;;;;;;;3.80;1.85;;;;;;;;;;5073132;28;20045;-75
2022/04/26 13:35:52;;;;;;;1.50;1.40;;;;;;;;;;5073489;28;20102;-75
2022/04/26 13:38:25;;;;;;;4.55;1.60;;;;;;;;;;5073715;28;20043;-75
2022/04/26 13:43:48;;;;;;;2.45;1.10;;;;;;;;;;5071749;28;20320;-75
2022/04/26 13:46:48;;;;;;;1.52;1.00;;;;;;;;;;5071756;28;20053;-76
2022/04/26 13:49:19;;;;;;;3.13;1.40;;;;;;;;;;5073237;28;20040;-77
2022/04/26 13:52:13;;;;;;;2.33;1.30;;;;;;;;;;5073007;28;20043;-76
2022/04/26 13:55:08;;;;;;;2.57;1.60;;;;;;;;;;5073549;28;20398;-76
2022/04/26 13:57:39;;;;;;;22.30;16.63;;;;;;;;;;5073067;28;20040;-76
2022/04/26 14:00:17;;;;;;;63.80;44.63;;;;;;;;;;5073060;28;20049;-76
2022/04/26 14:02:48;;;;;;;21.67;14.90;;;;;;;;;;5071683;28;20135;-76
2022/04/26 14:05:27;;;;;;;23.92;17.55;;;;;;;;;;5075706;28;20046;-74
2022/04/26 14:08:00;;;;;;;10.23;8.15;;;;;;;;;;5075594;28;20047;-74
2022/04/26 14:10:33;;;;;;;29.63;22.52;;;;;;;;;;5076923;28;20060;-75
2022/04/26 14:13:00;;;;;;;7.25;4.65;;;;;;;;;;5076905;28;20041;-75
2022/04/26 14:24:05;;;;;;;3.08;1.33;;;;;;;;;;5076860;28;20044;-74
2022/04/26 14:26:33;;;;;;;4.10;1.90;;;;;;;;;;5075197;28;20060;-73
2022/04/26 14:29:02;;;;;;;1.95;1.42;;;;;;;;;;5075301;28;20090;-73
2022/04/26 14:31:32;;;;;;;5.32;3.30;;;;;;;;;;5075355;28;20045;-74
2022/04/26 14:34:14;;;;;;;2.45;1.90;;;;;;;;;;5076508;28;20041;-75
2022/04/26 14:36:42;;;;;;;12.02;9.38;;;;;;;;;;5074844;28;20486;-75
2022/04/26 14:39:29;;;;;;;2.72;1.70;;;;;;;;;;5074314;28;20063;-76
2022/04/26 14:41:58;;;;;;;3.72;2.35;;;;;;;;;;5074064;28;20036;-75
2022/04/26 14:44:28;;;;;;;3.42;2.40;;;;;;;;;;5075181;28;20040;-76
2022/04/26 14:46:59;;;;;;;5.38;2.72;;;;;;;;;;5075866;28;20043;-78
2022/04/26 14:49:44;;;;;;;4.43;2.00;;;;;;;;;;5074583;28;20056;-77
2022/04/26 14:52:17;;;;;;;1.95;1.75;;;;;;;;;;5076499;28;20448;-77
2022/04/26 14:54:57;;;;;;;4.10;1.35;;;;;;;;;;5077486;28;20044;-76
2022/04/26 14:57:24;;;;;;;2.15;1.40;;;;;;;;;;5076044;28;20029;-77
2022/04/26 14:59:54;;;;;;;3.60;1.60;;;;;;;;;;5076477;28;20443;-81
2022/04/26 15:02:22;;;;;;;1.73;1.38;;;;;;;;;;5076027;28;20041;-76
2022/04/26 15:04:51;;;;;;;6.05;2.35;;;;;;;;;;5076143;28;20481;-79
2022/04/26 15:07:19;;;;;;;4.03;2.53;;;;;;;;;;5076256;28;20434;-76
2022/04/26 15:09:52;;;;;;;3.05;1.40;;;;;;;;;;5075078;28;20044;-76
2022/04/26 15:17:55;;;;;;;2.47;1.90;;;;;;;;;;5074641;28;20102;-78
2022/04/26 15:20:25;;;;;;;2.42;1.45;;;;;;;;;;5075590;28;20055;-76
2022/04/26 15:22:54;;;;;;;4.32;2.17;;;;;;;;;;5074912;28;20482;-76
2022/04/26 15:25:22;;;;;;;1.95;1.48;;;;;;;;;;5057741;28;20426;-75
2022/04/26 15:27:50;;;;;;;3.25;2.00;;;;;;;;;;5074253;28;20135;-76
2022/04/26 15:30:21;;;;;;;10.10;2.10;;;;;;;;;;5075614;28;20044;-77
2022/04/26 15:32:49;;;;;;;8.57;5.00;;;;;;;;;;5074283;28;20055;-78
2022/04/26 15:35:17;;;;;;;8.43;2.15;;;;;;;;;;5073806;28;20056;-77
2022/04/26 15:37:45;;;;;;;2.50;1.33;;;;;;;;;;5075370;28;20452;-76
2022/04/26 15:40:13;;;;;;;3.17;1.75;;;;;;;;;;5075186;28;20032;-76
2022/04/26 15:42:40;;;;;;;3.17;1.70;;;;;;;;;;5073586;28;20159;-77
2022/04/26 15:45:10;;;;;;;5.13;3.53;;;;;;;;;;5056991;28;20045;-75
2022/04/26 15:47:37;;;;;;;4.40;2.00;;;;;;;;;;5075613;28;20127;-75
2022/04/26 15:50:07;;;;;;;6.80;3.30;;;;;;;;;;5074763;28;20064;-77
2022/04/26 15:52:37;;;;;;;3.35;2.75;;;;;;;;;;5073204;28;20033;-75
2022/04/26 15:55:05;;;;;;;30.55;22.90;;;;;;;;;;5073507;28;20084;-77
2022/04/26 15:57:33;;;;;;;5.85;3.10;;;;;;;;;;5074882;28;20044;-75
2022/04/26 16:00:06;;;;;;;16.77;11.52;;;;;;;;;;5073620;28;20041;-76
2022/04/26 16:02:43;;;;;;;37.13;25.57;;;;;;;;;;5074864;28;20055;-76
2022/04/26 16:05:13;;;;;;;6.07;4.68;;;;;;;;;;5074132;28;20289;-75
2022/04/26 16:07:41;;;;;;;11.00;7.72;;;;;;;;;;5074376;28;20047;-76
2022/04/26 16:21:40;;;;;;;4.97;2.30;;;;;;;;;;5053904;28;20076;-75
2022/04/26 16:24:38;;;;;;;6.80;4.97;;;;;;;;;;5052697;28;20041;-75
2022/04/26 16:27:08;;;;;;;31.90;24.05;;;;;;;;;;5053185;28;20068;-73
2022/04/26 16:29:36;;;;;;;19.00;14.15;;;;;;;;;;5052898;28;20049;-74
2022/04/26 16:32:04;;;;;;;22.90;15.00;;;;;;;;;;5052720;28;20041;-73
2022/04/26 16:34:33;;;;;;;22.30;15.73;;;;;;;;;;5054189;28;20415;-74
2022/04/26 16:37:01;;;;;;;15.63;9.80;;;;;;;;;;5053978;28;20127;-74
2022/04/26 16:39:59;;;;;;;21.23;13.45;;;;;;;;;;5053917;28;20037;-76
2022/04/26 16:42:27;;;;;;;9.55;6.05;;;;;;;;;;5069650;28;20056;-75
2022/04/26 16:44:57;;;;;;;7.43;3.53;;;;;;;;;;5063082;28;20033;-76
2022/04/26 16:47:25;;;;;;;5.97;3.80;;;;;;;;;;5073920;28;20524;-73
2022/04/26 16:49:54;;;;;;;6.20;3.15;;;;;;;;;;5072410;28;20040;-73
2022/04/26 16:52:24;;;;;;;5.72;2.40;;;;;;;;;;5073387;28;20540;-74
2022/04/26 16:54:52;;;;;;;3.38;1.77;;;;;;;;;;5073253;28;20124;-73
2022/04/26 16:57:19;;;;;;;4.00;2.83;;;;;;;;;;5073288;28;20040;-73
2022/04/26 16:59:47;;;;;;;5.40;2.78;;;;;;;;;;5074141;28;20064;-74
2022/04/26 17:02:20;;;;;;;5.78;1.73;;;;;;;;;;5073473;28;20036;-74
2022/04/26 17:04:50;;;;;;;3.55;2.25;;;;;;;;;;5073475;28;20036;-73
2022/04/26 17:07:18;;;;;;;3.25;1.98;;;;;;;;;;5073620;28;20048;-73
2022/04/26 17:09:46;;;;;;;8.00;2.75;;;;;;;;;;5073499;28;20047;-74
2022/04/26 17:12:15;;;;;;;6.20;2.10;;;;;;;;;;5073275;28;20064;-72
2022/04/26 17:14:44;;;;;;;7.43;3.80;;;;;;;;;;5073664;28;20456;-73
2022/04/26 17:17:12;;;;;;;7.20;3.20;;;;;;;;;;5073145;28;20119;-75
2022/04/26 17:19:40;;;;;;;6.32;2.45;;;;;;;;;;5073070;28;20074;-74
2022/04/26 17:22:08;;;;;;;5.55;2.47;;;;;;;;;;5072080;28;20379;-74
2022/04/26 17:27:23;;;;;;;7.53;3.00;;;;;;;;;;5073156;28;20820;-74
2022/04/26 17:29:50;;;;;;;6.82;3.30;;;;;;;;;;5072104;28;20037;-74
2022/04/26 17:32:30;;;;;;;10.02;3.40;;;;;;;;;;5060007;28;20047;-73
2022/04/26 17:34:59;;;;;;;9.68;4.10;;;;;;;;;;5051764;28;20041;-74
2022/04/26 17:37:28;;;;;;;8.55;3.58;;;;;;;;;;5060293;28;20067;-74
2022/04/26 17:39:55;;;;;;;7.13;3.53;;;;;;;;;;5070505;28;20036;-73
2022/04/26 17:42:24;;;;;;;11.07;3.60;;;;;;;;;;5073032;28;20529;-73
2022/04/26 17:44:56;;;;;;;8.68;4.30;;;;;;;;;;5069569;28;20048;-74
2022/04/26 17:47:24;;;;;;;15.48;7.38;;;;;;;;;;5046354;28;20049;-73
2022/04/26 17:49:54;;;;;;;17.25;5.78;;;;;;;;;;5068104;28;20048;-73
2022/04/26 17:52:25;;;;;;;20.05;6.15;;;;;;;;;;5051888;28;20048;-74
2022/04/26 17:57:42;;;;;;;15.77;6.85;;;;;;;;;;5070122;28;20429;-73
2022/04/26 18:00:11;;;;;;;17.33;10.15;;;;;;;;;;5070838;28;20064;-73
2022/04/26 18:02:43;;;;;;;20.80;8.75;;;;;;;;;;5072246;28;20052;-73
2022/04/26 18:05:13;;;;;;;26.25;13.27;;;;;;;;;;5070908;28;20366;-73
2022/04/26 18:07:40;;;;;;;23.35;12.50;;;;;;;;;;5070928;28;20452;-73
2022/04/26 18:10:08;;;;;;;13.45;8.50;;;;;;;;;;5072423;28;20055;-74
2022/04/26 18:12:36;;;;;;;26.13;13.52;;;;;;;;;;5071006;28;20040;-72
2022/04/26 18:15:04;;;;;;;13.23;6.00;;;;;;;;;;5072393;28;20068;-73
2022/04/26 18:17:31;;;;;;;9.25;3.75;;;;;;;;;;5054687;28;20046;-72
2022/04/26 18:19:59;;;;;;;8.30;3.63;;;;;;;;;;5072275;28;20052;-72
2022/04/26 18:22:27;;;;;;;7.93;3.10;;;;;;;;;;5071094;28;20037;-73
2022/04/26 18:24:55;;;;;;;6.65;3.53;;;;;;;;;;5072660;28;20048;-73
2022/04/26 18:27:25;;;;;;;12.18;4.03;;;;;;;;;;5072154;28;20045;-73
2022/04/26 18:30:00;;;;;;;11.18;5.10;;;;;;;;;;5065938;28;20391;-74
2022/04/26 18:32:33;;;;;;;12.88;5.05;;;;;;;;;;5058304;28;20517;-73
2022/04/26 18:35:01;;;;;;;10.55;5.85;;;;;;;;;;5052818;28;20041;-74
2022/04/26 18:37:32;;;;;;;10.90;5.00;;;;;;;;;;5051216;28;20049;-72
2022/04/26 18:40:00;;;;;;;11.80;4.55;;;;;;;;;;5051730;28;20467;-73
2022/04/26 18:42:27;;;;;;;11.00;4.95;;;;;;;;;;5052156;28;20060;-74
2022/04/26 18:44:58;;;;;;;10.18;4.25;;;;;;;;;;5054392;28;20425;-74
2022/04/26 18:47:25;;;;;;;12.10;4.78;;;;;;;;;;5072403;28;20037;-74
2022/04/26 18:49:53;;;;;;;16.27;5.82;;;;;;;;;;5072945;28;20040;-76
2022/04/26 18:52:48;;;;;;;15.52;6.30;;;;;;;;;;5075550;28;20048;-75
2022/04/26 18:56:00;;;;;;;;;;;;;;;;;;;;;
2022/04/26 18:58:53;;;;;;;15.68;9.60;;;;;;;;;;5074536;28;20053;-74
2022/04/26 19:01:46;;;;;;;21.88;9.23;;;;;;;;;;5075331;28;20041;-75
2022/04/26 19:04:15;;;;;;;20.70;9.18;;;;;;;;;;5073246;28;20064;-76
2022/04/26 19:06:43;;;;;;;18.05;8.48;;;;;;;;;;5059262;28;20040;-76
2022/04/26 19:09:11;;;;;;;24.45;10.38;;;;;;;;;;5062540;28;20087;-75
2022/04/26 19:14:26;;;;;;;14.50;7.70;;;;;;;;;;5076049;28;20478;-76
2022/04/26 19:16:53;;;;;;;17.15;7.10;;;;;;;;;;5061872;28;20049;-75
2022/04/26 19:19:21;;;;;;;14.60;7.20;;;;;;;;;;5055526;28;20368;-75
2022/04/26 19:21:48;;;;;;;14.02;7.65;;;;;;;;;;5055357;28;20119;-75
2022/04/26 19:24:16;;;;;;;11.77;7.88;;;;;;;;;;5055174;28;20037;-76
2022/04/26 19:26:44;;;;;;;12.35;5.43;;;;;;;;;;5055328;28;20052;-76
2022/04/26 19:29:11;;;;;;;13.27;4.88;;;;;;;;;;5054430;28;20170;-75
2022/04/26 19:31:39;;;;;;;11.20;4.38;;;;;;;;;;5053829;28;20049;-77
2022/04/26 19:34:06;;;;;;;11.20;5.18;;;;;;;;;;5055217;28;20743;-75
2022/04/26 19:36:34;;;;;;;10.02;4.25;;;;;;;;;;5055191;28;20049;-76
2022/04/26 19:39:01;;;;;;;12.52;4.97;;;;;;;;;;5053878;28;20044;-76
2022/04/26 19:41:29;;;;;;;13.80;4.25;;;;;;;;;;5053722;28;20095;-75
2022/04/26 19:43:56;;;;;;;8.45;3.90;;;;;;;;;;5056333;28;20525;-76
2022/04/26 19:46:52;;;;;;;9.55;4.00;;;;;;;;;;5059613;28;20049;-77
2022/04/26 19:49:26;;;;;;;7.60;4.95;;;;;;;;;;5053679;28;20076;-76
2022/04/26 19:52:01;;;;;;;9.57;5.25;;;;;;;;;;5054599;28;20498;-76
2022/04/26 19:54:28;;;;;;;11.35;5.32;;;;;;;;;;5053229;28;20480;-75
2022/04/26 19:57:00;;;;;;;9.48;6.00;;;;;;;;;;5053312;28;20076;-78
2022/04/26 19:59:28;;;;;;;12.10;5.82;;;;;;;;;;5053258;28;20041;-75
2022/04/26 20:02:13;;;;;;;18.20;6.20;;;;;;;;;;5054583;28;20041;-74
2022/04/26 20:04:41;;;;;;;13.70;7.57;;;;;;;;;;5058931;28;20064;-76
2022/04/26 20:07:09;;;;;;;16.17;8.57;;;;;;;;;;5066952;28;20047;-75
2022/04/26 20:09:38;;;;;;;16.50;7.85;;;;;;;;;;5053437;28;20037;-76
2022/04/26 20:12:11;;;;;;;11.52;6.70;;;;;;;;;;5055022;28;20506;-74
2022/04/26 20:14:39;;;;;;;13.10;7.30;;;;;;;;;;5053145;28;20103;-74
2022/04/26 20:20:19;;;;;;;4.38;2.80;;;;;;;;;;5054290;28;20084;-75
2022/04/26 20:23:12;;;;;;;4.78;2.58;;;;;;;;;;5055051;28;20037;-76
2022/04/26 20:31:41;;;;;;;4.43;2.13;;;;;;;;;;5057957;28;20076;-75
2022/04/26 20:34:09;;;;;;;4.00;2.30;;;;;;;;;;5072126;28;20037;-75
2022/04/26 20:36:37;;;;;;;5.65;2.30;;;;;;;;;;5070952;28;20044;-76